sensor_id;sensor_type;location;lat;lon;timestamp;pressure;altitude;pressure_sealevel;temperature;humidity
24234;BME280;12365;43.554;1.388;2022-09-17T00:01:44;99932.50;;;21.86;39.09
24234;BME280;12365;43.554;1.388;2022-09-17T00:04:09;99937.81;;;21.85;38.96
24234;BME280;12365;43.554;1.388;2022-09-17T00:06:35;99936.03;;;21.81;39.29
24234;BME280;12365;43.554;1.388;2022-09-17T00:09:02;99936.03;;;21.78;39.39
24234;BME280;12365;43.554;1.388;2022-09-17T00:11:30;99943.97;;;21.75;38.86
24234;BME280;12365;43.554;1.388;2022-09-17T00:13:58;99944.84;;;21.68;39.25
24234;BME280;12365;43.554;1.388;2022-09-17T00:16:30;99958.13;;;21.68;39.26
24234;BME280;12365;43.554;1.388;2022-09-17T00:18:56;99951.00;;;21.65;39.25
24234;BME280;12365;43.554;1.388;2022-09-17T00:21:23;99946.59;;;21.66;39.20
24234;BME280;12365;43.554;1.388;2022-09-17T00:23:53;99944.78;;;21.61;39.15
24234;BME280;12365;43.554;1.388;2022-09-17T00:26:19;99951.84;;;21.59;39.32
24234;BME280;12365;43.554;1.388;2022-09-17T00:28:51;99953.63;;;21.57;39.43
24234;BME280;12365;43.554;1.388;2022-09-17T00:31:17;99951.81;;;21.53;39.46
24234;BME280;12365;43.554;1.388;2022-09-17T00:33:42;99956.22;;;21.48;39.42
24234;BME280;12365;43.554;1.388;2022-09-17T00:36:08;99958.84;;;21.45;39.45
24234;BME280;12365;43.554;1.388;2022-09-17T00:38:33;99955.28;;;21.43;39.40
24234;BME280;12365;43.554;1.388;2022-09-17T00:40:59;99956.16;;;21.40;39.49
24234;BME280;12365;43.554;1.388;2022-09-17T00:46:34;99963.19;;;21.35;39.60
24234;BME280;12365;43.554;1.388;2022-09-17T00:51:38;99964.91;;;21.27;39.86
24234;BME280;12365;43.554;1.388;2022-09-17T00:54:07;99969.28;;;21.24;39.92
24234;BME280;12365;43.554;1.388;2022-09-17T00:56:36;99962.19;;;21.19;39.78
24234;BME280;12365;43.554;1.388;2022-09-17T00:59:03;99967.47;;;21.18;39.84
24234;BME280;12365;43.554;1.388;2022-09-17T01:01:29;99967.41;;;21.13;40.10
24234;BME280;12365;43.554;1.388;2022-09-17T01:03:54;99968.28;;;21.11;39.97
24234;BME280;12365;43.554;1.388;2022-09-17T01:06:44;99967.38;;;21.07;40.15
24234;BME280;12365;43.554;1.388;2022-09-17T01:15:46;99967.22;;;20.90;40.32
24234;BME280;12365;43.554;1.388;2022-09-17T01:18:24;99969.78;;;20.81;40.57
24234;BME280;12365;43.554;1.388;2022-09-17T01:29:53;99969.41;;;20.44;40.95
24234;BME280;12365;43.554;1.388;2022-09-17T01:32:41;99977.22;;;20.33;41.31
24234;BME280;12365;43.554;1.388;2022-09-17T01:35:30;99976.22;;;20.24;41.48
24234;BME280;12365;43.554;1.388;2022-09-17T01:38:11;99984.09;;;20.16;41.42
24234;BME280;12365;43.554;1.388;2022-09-17T01:40:53;99989.34;;;20.13;41.78
24234;BME280;12365;43.554;1.388;2022-09-17T01:43:29;99984.91;;;20.10;41.92
24234;BME280;12365;43.554;1.388;2022-09-17T01:48:29;99983.91;;;20.02;41.99
24234;BME280;12365;43.554;1.388;2022-09-17T01:53:37;99978.50;;;19.95;42.48
24234;BME280;12365;43.554;1.388;2022-09-17T01:56:07;99985.59;;;19.96;42.55
24234;BME280;12365;43.554;1.388;2022-09-17T01:58:39;99983.81;;;19.95;42.54
24234;BME280;12365;43.554;1.388;2022-09-17T02:01:10;99974.94;;;19.91;42.46
24234;BME280;12365;43.554;1.388;2022-09-17T02:03:56;99985.59;;;19.96;42.75
24234;BME280;12365;43.554;1.388;2022-09-17T02:06:28;99985.59;;;19.97;42.84
24234;BME280;12365;43.554;1.388;2022-09-17T02:09:07;99975.00;;;19.97;42.62
24234;BME280;12365;43.554;1.388;2022-09-17T02:11:37;99985.59;;;19.96;42.87
24234;BME280;12365;43.554;1.388;2022-09-17T02:14:19;99970.56;;;19.95;42.83
24234;BME280;12365;43.554;1.388;2022-09-17T02:16:51;99980.22;;;19.91;43.40
24234;BME280;12365;43.554;1.388;2022-09-17T02:19:24;99978.44;;;19.88;43.57
24234;BME280;12365;43.554;1.388;2022-09-17T02:30:07;99984.47;;;19.80;43.93
24234;BME280;12365;43.554;1.388;2022-09-17T02:32:33;99992.47;;;19.81;44.19
24234;BME280;12365;43.554;1.388;2022-09-17T02:34:58;99986.31;;;19.84;44.25
24234;BME280;12365;43.554;1.388;2022-09-17T02:37:24;99990.75;;;19.86;44.41
24234;BME280;12365;43.554;1.388;2022-09-17T02:39:49;99986.31;;;19.84;44.53
24234;BME280;12365;43.554;1.388;2022-09-17T02:42:29;99983.63;;;19.82;44.70
24234;BME280;12365;43.554;1.388;2022-09-17T02:48:02;99976.50;;;19.75;44.80
24234;BME280;12365;43.554;1.388;2022-09-17T02:58:46;99984.44;;;19.75;45.21
24234;BME280;12365;43.554;1.388;2022-09-17T03:01:57;99980.03;;;19.77;45.10
24234;BME280;12365;43.554;1.388;2022-09-17T03:04:15;99986.19;;;19.73;45.19
24234;BME280;12365;43.554;1.388;2022-09-17T03:06:45;99980.84;;;19.72;45.48
24234;BME280;12365;43.554;1.388;2022-09-17T03:09:12;99981.72;;;19.70;45.47
24234;BME280;12365;43.554;1.388;2022-09-17T03:11:37;99981.72;;;19.72;45.70
24234;BME280;12365;43.554;1.388;2022-09-17T03:14:03;99978.22;;;19.73;45.51
24234;BME280;12365;43.554;1.388;2022-09-17T03:16:28;99981.72;;;19.72;45.54
24234;BME280;12365;43.554;1.388;2022-09-17T03:18:54;99974.63;;;19.68;45.46
24234;BME280;12365;43.554;1.388;2022-09-17T03:21:19;99982.63;;;19.73;45.67
24234;BME280;12365;43.554;1.388;2022-09-17T03:23:45;99972.91;;;19.72;45.79
24234;BME280;12365;43.554;1.388;2022-09-17T03:26:11;99986.97;;;19.69;45.80
24234;BME280;12365;43.554;1.388;2022-09-17T03:28:36;99978.09;;;19.65;45.59
24234;BME280;12365;43.554;1.388;2022-09-17T03:31:02;99986.03;;;19.65;45.92
24234;BME280;12365;43.554;1.388;2022-09-17T03:33:27;99985.16;;;19.65;45.74
24234;BME280;12365;43.554;1.388;2022-09-17T03:35:52;99986.84;;;19.60;45.82
24234;BME280;12365;43.554;1.388;2022-09-17T03:38:18;99989.41;;;19.57;45.89
24234;BME280;12365;43.554;1.388;2022-09-17T03:40:43;99977.91;;;19.53;46.23
24234;BME280;12365;43.554;1.388;2022-09-17T03:43:09;99981.41;;;19.51;46.26
24234;BME280;12365;43.554;1.388;2022-09-17T03:45:34;99973.38;;;19.46;46.24
24234;BME280;12365;43.554;1.388;2022-09-17T03:48:00;99976.84;;;19.42;46.14
24234;BME280;12365;43.554;1.388;2022-09-17T03:50:25;99976.84;;;19.40;46.34
24234;BME280;12365;43.554;1.388;2022-09-17T03:52:51;99983.84;;;19.38;46.44
24234;BME280;12365;43.554;1.388;2022-09-17T03:55:16;99984.66;;;19.34;46.41
24234;BME280;12365;43.554;1.388;2022-09-17T03:57:42;99970.44;;;19.26;46.50
24234;BME280;12365;43.554;1.388;2022-09-17T04:00:08;99989.91;;;19.31;46.42
24234;BME280;12365;43.554;1.388;2022-09-17T04:02:34;99988.13;;;19.30;46.43
24234;BME280;12365;43.554;1.388;2022-09-17T04:04:59;99984.63;;;19.31;46.37
24234;BME280;12365;43.554;1.388;2022-09-17T04:07:25;99991.66;;;19.31;46.43
24234;BME280;12365;43.554;1.388;2022-09-17T04:09:50;99988.13;;;19.30;46.52
24234;BME280;12365;43.554;1.388;2022-09-17T04:12:15;99994.28;;;19.29;46.58
24234;BME280;12365;43.554;1.388;2022-09-17T04:14:41;99989.84;;;19.26;46.46
24234;BME280;12365;43.554;1.388;2022-09-17T04:17:06;99992.47;;;19.26;46.61
24234;BME280;12365;43.554;1.388;2022-09-17T04:19:31;99996.88;;;19.26;46.62
24234;BME280;12365;43.554;1.388;2022-09-17T04:21:57;99990.66;;;19.24;46.51
24234;BME280;12365;43.554;1.388;2022-09-17T04:24:22;99989.78;;;19.23;46.68
24234;BME280;12365;43.554;1.388;2022-09-17T04:26:47;99998.59;;;19.24;46.60
24234;BME280;12365;43.554;1.388;2022-09-17T04:29:13;99995.97;;;19.24;46.79
24234;BME280;12365;43.554;1.388;2022-09-17T04:31:38;99996.88;;;19.26;46.72
24234;BME280;12365;43.554;1.388;2022-09-17T04:34:04;99998.59;;;19.24;46.62
24234;BME280;12365;43.554;1.388;2022-09-17T04:36:29;100000.38;;;19.22;46.78
24234;BME280;12365;43.554;1.388;2022-09-17T04:38:55;100001.25;;;19.22;46.62
24234;BME280;12365;43.554;1.388;2022-09-17T04:41:20;100003.88;;;19.22;46.70
24234;BME280;12365;43.554;1.388;2022-09-17T04:43:46;100005.56;;;19.19;46.69
24234;BME280;12365;43.554;1.388;2022-09-17T04:46:11;100006.50;;;19.19;46.60
24234;BME280;12365;43.554;1.388;2022-09-17T04:48:38;100004.69;;;19.17;46.84
24234;BME280;12365;43.554;1.388;2022-09-17T04:51:03;100006.41;;;19.15;46.78
24234;BME280;12365;43.554;1.388;2022-09-17T04:53:29;100004.59;;;19.12;47.07
24234;BME280;12365;43.554;1.388;2022-09-17T04:55:54;100012.50;;;19.11;46.97
24234;BME280;12365;43.554;1.388;2022-09-17T04:58:20;100012.50;;;19.09;47.13
24234;BME280;12365;43.554;1.388;2022-09-17T05:00:45;100013.34;;;19.08;47.03
24234;BME280;12365;43.554;1.388;2022-09-17T05:03:10;100023.03;;;19.08;47.03
24234;BME280;12365;43.554;1.388;2022-09-17T05:05:36;100023.91;;;19.07;47.09
24234;BME280;12365;43.554;1.388;2022-09-17T05:08:01;100021.19;;;19.03;47.17
24234;BME280;12365;43.554;1.388;2022-09-17T05:10:27;100023.78;;;19.00;47.25
24234;BME280;12365;43.554;1.388;2022-09-17T05:12:54;100029.13;;;19.02;47.31
24234;BME280;12365;43.554;1.388;2022-09-17T05:15:22;100027.31;;;19.01;47.25
24234;BME280;12365;43.554;1.388;2022-09-17T05:17:47;100023.78;;;19.00;47.28
24234;BME280;12365;43.554;1.388;2022-09-17T05:20:14;100025.56;;;19.00;47.37
24234;BME280;12365;43.554;1.388;2022-09-17T05:22:44;100036.09;;;18.98;47.39
24234;BME280;12365;43.554;1.388;2022-09-17T05:25:11;100033.44;;;18.97;47.38
24234;BME280;12365;43.554;1.388;2022-09-17T05:27:37;100033.41;;;18.95;47.23
24234;BME280;12365;43.554;1.388;2022-09-17T05:30:03;100034.22;;;18.93;47.52
24234;BME280;12365;43.554;1.388;2022-09-17T05:32:29;100043.91;;;18.92;47.25
24234;BME280;12365;43.554;1.388;2022-09-17T05:34:54;100036.84;;;18.91;47.50
24234;BME280;12365;43.554;1.388;2022-09-17T05:37:20;100045.69;;;18.93;47.36
24234;BME280;12365;43.554;1.388;2022-09-17T05:39:45;100046.56;;;18.94;47.26
24234;BME280;12365;43.554;1.388;2022-09-17T05:42:11;100053.63;;;18.92;47.39
24234;BME280;12365;43.554;1.388;2022-09-17T05:44:36;100057.09;;;18.91;47.29
24234;BME280;12365;43.554;1.388;2022-09-17T05:47:01;100057.97;;;18.91;47.42
24234;BME280;12365;43.554;1.388;2022-09-17T05:49:27;100065.03;;;18.89;47.47
24234;BME280;12365;43.554;1.388;2022-09-17T05:51:52;100055.28;;;18.88;47.30
24234;BME280;12365;43.554;1.388;2022-09-17T05:54:17;100057.88;;;18.85;47.32
24234;BME280;12365;43.554;1.388;2022-09-17T05:56:43;100060.53;;;18.85;47.24
24234;BME280;12365;43.554;1.388;2022-09-17T05:59:08;100056.22;;;18.90;47.21
24234;BME280;12365;43.554;1.388;2022-09-17T06:01:34;100061.50;;;18.90;47.27
24234;BME280;12365;43.554;1.388;2022-09-17T06:03:59;100064.19;;;18.93;47.35
24234;BME280;12365;43.554;1.388;2022-09-17T06:06:27;100067.72;;;18.94;47.18
24234;BME280;12365;43.554;1.388;2022-09-17T06:08:54;100066.84;;;18.93;47.05
24234;BME280;12365;43.554;1.388;2022-09-17T06:11:19;100077.41;;;18.93;47.28
24234;BME280;12365;43.554;1.388;2022-09-17T06:13:45;100076.56;;;18.94;47.21
24234;BME280;12365;43.554;1.388;2022-09-17T06:16:10;100081.00;;;18.95;47.16
24234;BME280;12365;43.554;1.388;2022-09-17T06:18:36;100076.63;;;18.97;47.17
24234;BME280;12365;43.554;1.388;2022-09-17T06:21:02;100080.22;;;19.01;46.99
24234;BME280;12365;43.554;1.388;2022-09-17T06:23:32;100075.81;;;19.01;46.84
24234;BME280;12365;43.554;1.388;2022-09-17T06:26:02;100077.59;;;19.02;46.75
24234;BME280;12365;43.554;1.388;2022-09-17T06:28:28;100083.81;;;19.06;46.58
24234;BME280;12365;43.554;1.388;2022-09-17T06:30:54;100084.75;;;19.07;46.60
24234;BME280;12365;43.554;1.388;2022-09-17T06:33:21;100088.28;;;19.09;46.72
24234;BME280;12365;43.554;1.388;2022-09-17T06:35:47;100083.91;;;19.11;46.49
24234;BME280;12365;43.554;1.388;2022-09-17T06:38:12;100084.78;;;19.10;46.49
24234;BME280;12365;43.554;1.388;2022-09-17T06:40:38;100087.41;;;19.08;46.66
24234;BME280;12365;43.554;1.388;2022-09-17T06:43:04;100085.72;;;19.12;46.37
24234;BME280;12365;43.554;1.388;2022-09-17T06:45:29;100084.88;;;19.16;46.62
24234;BME280;12365;43.554;1.388;2022-09-17T06:47:55;100089.34;;;19.17;46.51
24234;BME280;12365;43.554;1.388;2022-09-17T06:50:20;100081.41;;;19.17;46.46
24234;BME280;12365;43.554;1.388;2022-09-17T06:52:53;100084.19;;;19.24;46.30
24234;BME280;12365;43.554;1.388;2022-09-17T06:55:19;100090.47;;;19.31;46.20
24234;BME280;12365;43.554;1.388;2022-09-17T06:57:45;100085.22;;;19.34;46.43
24234;BME280;12365;43.554;1.388;2022-09-17T07:00:12;100087.94;;;19.39;46.00
24234;BME280;12365;43.554;1.388;2022-09-17T07:02:38;100099.50;;;19.42;46.07
24234;BME280;12365;43.554;1.388;2022-09-17T07:05:04;100101.25;;;19.43;46.09
24234;BME280;12365;43.554;1.388;2022-09-17T07:07:29;100095.16;;;19.49;45.99
24234;BME280;12365;43.554;1.388;2022-09-17T07:09:55;100104.06;;;19.53;46.07
24234;BME280;12365;43.554;1.388;2022-09-17T07:12:20;100100.66;;;19.60;45.93
24234;BME280;12365;43.554;1.388;2022-09-17T07:14:46;100101.72;;;19.69;45.89
24234;BME280;12365;43.554;1.388;2022-09-17T07:17:14;100100.03;;;19.75;45.73
24234;BME280;12365;43.554;1.388;2022-09-17T07:19:40;100109.16;;;19.94;45.42
24234;BME280;12365;43.554;1.388;2022-09-17T07:22:06;100104.78;;;19.97;45.48
24234;BME280;12365;43.554;1.388;2022-09-17T07:24:32;100103.97;;;20.01;45.45
24234;BME280;12365;43.554;1.388;2022-09-17T07:26:58;100103.09;;;20.02;45.03
24234;BME280;12365;43.554;1.388;2022-09-17T07:29:24;100111.03;;;20.01;45.33
24234;BME280;12365;43.554;1.388;2022-09-17T07:31:53;100107.69;;;20.14;45.26
24234;BME280;12365;43.554;1.388;2022-09-17T07:34:19;100098.09;;;20.22;44.78
24234;BME280;12365;43.554;1.388;2022-09-17T07:36:44;100104.34;;;20.27;44.94
24234;BME280;12365;43.554;1.388;2022-09-17T07:39:10;100107.09;;;20.35;44.84
24234;BME280;12365;43.554;1.388;2022-09-17T07:41:40;100097.34;;;20.31;44.92
24234;BME280;12365;43.554;1.388;2022-09-17T07:44:05;100102.69;;;20.34;44.85
24234;BME280;12365;43.554;1.388;2022-09-17T07:46:32;100096.47;;;20.32;44.92
24234;BME280;12365;43.554;1.388;2022-09-17T07:48:57;100104.34;;;20.27;44.58
24234;BME280;12365;43.554;1.388;2022-09-17T07:51:24;100107.22;;;20.41;44.82
24234;BME280;12365;43.554;1.388;2022-09-17T07:53:53;100103.91;;;20.56;44.64
24234;BME280;12365;43.554;1.388;2022-09-17T07:56:19;100106.69;;;20.68;44.20
24234;BME280;12365;43.554;1.388;2022-09-17T07:58:45;100104.34;;;20.94;44.06
24234;BME280;12365;43.554;1.388;2022-09-17T08:01:12;100103.72;;;21.20;43.63
24234;BME280;12365;43.554;1.388;2022-09-17T08:03:39;100106.44;;;21.29;43.70
24234;BME280;12365;43.554;1.388;2022-09-17T08:06:16;100103.97;;;21.43;43.55
24234;BME280;12365;43.554;1.388;2022-09-17T08:08:42;100110.31;;;21.57;43.15
24234;BME280;12365;43.554;1.388;2022-09-17T08:11:13;100110.38;;;21.70;42.95
24234;BME280;12365;43.554;1.388;2022-09-17T08:13:39;100107.66;;;21.62;42.83
24234;BME280;12365;43.554;1.388;2022-09-17T08:16:07;100111.13;;;21.50;42.62
24234;BME280;12365;43.554;1.388;2022-09-17T08:18:33;100112.97;;;21.57;42.58
24234;BME280;12365;43.554;1.388;2022-09-17T08:21:00;100115.75;;;21.77;42.43
24234;BME280;12365;43.554;1.388;2022-09-17T08:23:27;100124.72;;;21.92;42.28
24234;BME280;12365;43.554;1.388;2022-09-17T08:25:54;100117.78;;;22.09;41.96
24234;BME280;12365;43.554;1.388;2022-09-17T08:28:24;100120.47;;;22.17;41.72
24234;BME280;12365;43.554;1.388;2022-09-17T08:30:50;100121.34;;;22.17;41.53
24234;BME280;12365;43.554;1.388;2022-09-17T08:33:16;100119.66;;;22.24;41.20
24234;BME280;12365;43.554;1.388;2022-09-17T08:35:50;100127.69;;;22.32;40.92
24234;BME280;12365;43.554;1.388;2022-09-17T08:38:15;100125.94;;;22.38;40.95
24234;BME280;12365;43.554;1.388;2022-09-17T08:40:49;100138.44;;;22.52;40.67
24234;BME280;12365;43.554;1.388;2022-09-17T08:43:18;100142.91;;;22.63;40.48
24234;BME280;12365;43.554;1.388;2022-09-17T08:45:51;100137.66;;;22.80;40.38
24234;BME280;12365;43.554;1.388;2022-09-17T08:48:16;100139.47;;;22.93;40.14
24234;BME280;12365;43.554;1.388;2022-09-17T08:50:43;100146.59;;;22.96;39.69
24234;BME280;12365;43.554;1.388;2022-09-17T08:56:17;100143.94;;;22.94;39.52
24234;BME280;12365;43.554;1.388;2022-09-17T08:59:24;100152.00;;;23.02;39.26
24234;BME280;12365;43.554;1.388;2022-09-17T09:07:23;100144.09;;;23.44;38.68
24234;BME280;12365;43.554;1.388;2022-09-17T09:10:05;100150.31;;;23.47;38.53
24234;BME280;12365;43.554;1.388;2022-09-17T09:12:36;100144.97;;;23.53;38.17
24234;BME280;12365;43.554;1.388;2022-09-17T09:15:12;100149.44;;;23.65;37.75
24234;BME280;12365;43.554;1.388;2022-09-17T09:17:44;100144.13;;;23.74;37.55
24234;BME280;12365;43.554;1.388;2022-09-17T09:20:29;100145.03;;;23.90;37.21
24234;BME280;12365;43.554;1.388;2022-09-17T09:22:59;100134.38;;;23.98;36.77
24234;BME280;12365;43.554;1.388;2022-09-17T09:25:35;100143.22;;;24.00;36.75
24234;BME280;12365;43.554;1.388;2022-09-17T09:30:59;100131.69;;;24.06;35.95
24234;BME280;12365;43.554;1.388;2022-09-17T09:33:30;100137.88;;;24.08;35.70
24234;BME280;12365;43.554;1.388;2022-09-17T09:35:56;100133.47;;;24.04;35.50
24234;BME280;12365;43.554;1.388;2022-09-17T09:38:35;100147.66;;;24.10;35.33
24234;BME280;12365;43.554;1.388;2022-09-17T09:46:30;100140.53;;;24.32;34.45
24234;BME280;12365;43.554;1.388;2022-09-17T09:49:04;100132.50;;;24.44;34.44
24234;BME280;12365;43.554;1.388;2022-09-17T09:51:48;100140.47;;;24.55;34.20
24234;BME280;12365;43.554;1.388;2022-09-17T09:57:13;100137.75;;;24.77;33.32
24234;BME280;12365;43.554;1.388;2022-09-17T09:59:39;100136.78;;;24.90;33.53
24234;BME280;12365;43.554;1.388;2022-09-17T10:02:06;100134.06;;;25.01;32.95
24234;BME280;12365;43.554;1.388;2022-09-17T10:04:31;100141.22;;;24.96;32.73
24234;BME280;12365;43.554;1.388;2022-09-17T10:07:08;100157.28;;;24.86;32.62
24234;BME280;12365;43.554;1.388;2022-09-17T10:09:35;100142.16;;;24.81;32.39
24234;BME280;12365;43.554;1.388;2022-09-17T10:14:32;100130.59;;;24.86;31.95
24234;BME280;12365;43.554;1.388;2022-09-17T10:24:53;100138.31;;;25.40;31.25
24234;BME280;12365;43.554;1.388;2022-09-17T10:27:20;100136.69;;;25.18;31.16
24234;BME280;12365;43.554;1.388;2022-09-17T10:29:49;100126.00;;;25.18;31.35
24234;BME280;12365;43.554;1.388;2022-09-17T10:32:17;100128.63;;;25.24;31.07
24234;BME280;12365;43.554;1.388;2022-09-17T10:37:34;100135.66;;;25.34;31.24
24234;BME280;12365;43.554;1.388;2022-09-17T10:40:00;100116.00;;;25.44;30.82
24234;BME280;12365;43.554;1.388;2022-09-17T10:42:25;100130.94;;;25.73;30.58
24234;BME280;12365;43.554;1.388;2022-09-17T10:49:59;100114.09;;;25.62;30.59
24234;BME280;12365;43.554;1.388;2022-09-17T11:00:25;100098.69;;;25.94;29.74
24234;BME280;12365;43.554;1.388;2022-09-17T11:03:15;100101.44;;;25.82;29.79
24234;BME280;12365;43.554;1.388;2022-09-17T11:25:57;100088.09;;;25.85;29.08
24234;BME280;12365;43.554;1.388;2022-09-17T11:36:37;100059.75;;;25.63;28.31
24234;BME280;12365;43.554;1.388;2022-09-17T11:39:13;100058.72;;;25.74;28.60
24234;BME280;12365;43.554;1.388;2022-09-17T11:41:43;100072.94;;;25.86;28.24
24234;BME280;12365;43.554;1.388;2022-09-17T11:47:09;100066.59;;;25.94;28.16
24234;BME280;12365;43.554;1.388;2022-09-17T11:50:02;100057.44;;;26.17;28.05
24234;BME280;12365;43.554;1.388;2022-09-17T11:52:37;100057.09;;;26.43;27.54
24234;BME280;12365;43.554;1.388;2022-09-17T11:57:43;100056.38;;;26.30;27.14
24234;BME280;12365;43.554;1.388;2022-09-17T12:00:13;100059.09;;;26.27;27.22
24234;BME280;12365;43.554;1.388;2022-09-17T12:02:53;100059.03;;;26.33;27.15
24234;BME280;12365;43.554;1.388;2022-09-17T12:05:27;100041.97;;;26.44;27.05
24234;BME280;12365;43.554;1.388;2022-09-17T12:16:07;100046.50;;;26.38;26.62
24234;BME280;12365;43.554;1.388;2022-09-17T12:21:24;100041.84;;;26.53;26.80
24234;BME280;12365;43.554;1.388;2022-09-17T12:23:58;100042.72;;;26.55;26.30
24234;BME280;12365;43.554;1.388;2022-09-17T12:26:37;100035.88;;;26.29;26.49
24234;BME280;12365;43.554;1.388;2022-09-17T12:32:02;100032.09;;;26.49;26.61
24234;BME280;12365;43.554;1.388;2022-09-17T12:35:02;100026.56;;;26.61;26.12
24234;BME280;12365;43.554;1.388;2022-09-17T12:48:38;100003.84;;;26.25;25.88
24234;BME280;12365;43.554;1.388;2022-09-17T12:51:57;99996.56;;;26.34;25.79
24234;BME280;12365;43.554;1.388;2022-09-17T13:00:10;99987.16;;;26.72;25.74
24234;BME280;12365;43.554;1.388;2022-09-17T13:02:52;99992.59;;;26.66;25.75
24234;BME280;12365;43.554;1.388;2022-09-17T13:08:11;99995.44;;;26.55;25.42
24234;BME280;12365;43.554;1.388;2022-09-17T13:11:03;99995.66;;;26.38;25.14
24234;BME280;12365;43.554;1.388;2022-09-17T13:13:45;99988.53;;;26.34;25.46
24234;BME280;12365;43.554;1.388;2022-09-17T13:16:17;99985.66;;;26.53;25.38
24234;BME280;12365;43.554;1.388;2022-09-17T13:19:46;99985.59;;;26.57;25.20
24234;BME280;12365;43.554;1.388;2022-09-17T13:22:15;99982.91;;;26.56;25.17
24234;BME280;12365;43.554;1.388;2022-09-17T13:24:41;99983.78;;;26.59;24.88
24234;BME280;12365;43.554;1.388;2022-09-17T13:27:23;99981.94;;;26.63;24.81
24234;BME280;12365;43.554;1.388;2022-09-17T13:37:41;99970.34;;;26.63;24.63
24234;BME280;12365;43.554;1.388;2022-09-17T13:40:35;99963.00;;;26.77;24.58
24234;BME280;12365;43.554;1.388;2022-09-17T13:45:27;99963.97;;;26.71;24.26
24234;BME280;12365;43.554;1.388;2022-09-17T13:47:57;99963.28;;;26.57;24.40
24234;BME280;12365;43.554;1.388;2022-09-17T13:52:53;99964.25;;;26.48;24.17
24234;BME280;12365;43.554;1.388;2022-09-17T14:01:05;99952.00;;;26.33;23.86
24234;BME280;12365;43.554;1.388;2022-09-17T14:24:25;99938.34;;;26.55;23.58
24234;BME280;12365;43.554;1.388;2022-09-17T14:26:58;99933.06;;;26.47;23.41
24234;BME280;12365;43.554;1.388;2022-09-17T14:37:58;99932.13;;;26.51;22.76
24234;BME280;12365;43.554;1.388;2022-09-17T14:40:25;99930.31;;;26.52;22.63
24234;BME280;12365;43.554;1.388;2022-09-17T14:42:55;99933.00;;;26.52;22.68
24234;BME280;12365;43.554;1.388;2022-09-17T14:45:27;99926.75;;;26.53;22.82
24234;BME280;12365;43.554;1.388;2022-09-17T14:50:45;99925.91;;;26.49;23.25
24234;BME280;12365;43.554;1.388;2022-09-17T14:53:15;99920.47;;;26.55;23.28
24234;BME280;12365;43.554;1.388;2022-09-17T14:55:42;99924.91;;;26.58;23.18
24234;BME280;12365;43.554;1.388;2022-09-17T14:58:30;99923.16;;;26.55;23.21
24234;BME280;12365;43.554;1.388;2022-09-17T15:00:57;99924.97;;;26.52;22.86
24234;BME280;12365;43.554;1.388;2022-09-17T15:03:23;99928.56;;;26.49;23.13
24234;BME280;12365;43.554;1.388;2022-09-17T15:05:49;99919.66;;;26.49;22.86
24234;BME280;12365;43.554;1.388;2022-09-17T15:08:23;99915.19;;;26.48;23.13
24234;BME280;12365;43.554;1.388;2022-09-17T15:13:24;99911.66;;;26.46;22.95
24234;BME280;12365;43.554;1.388;2022-09-17T15:16:01;99909.84;;;26.49;23.01
24234;BME280;12365;43.554;1.388;2022-09-17T15:18:40;99908.84;;;26.58;23.22
24234;BME280;12365;43.554;1.388;2022-09-17T15:21:40;99911.38;;;26.66;22.92
24234;BME280;12365;43.554;1.388;2022-09-17T15:26:52;99906.00;;;26.69;22.73
24234;BME280;12365;43.554;1.388;2022-09-17T15:29:23;99913.13;;;26.71;22.91
24234;BME280;12365;43.554;1.388;2022-09-17T15:31:49;99914.94;;;26.69;22.87
24234;BME280;12365;43.554;1.388;2022-09-17T15:34:15;99912.25;;;26.68;22.71
24234;BME280;12365;43.554;1.388;2022-09-17T15:37:04;99898.81;;;26.72;22.67
24234;BME280;12365;43.554;1.388;2022-09-17T15:39:40;99908.50;;;26.79;22.78
24234;BME280;12365;43.554;1.388;2022-09-17T15:42:17;99899.72;;;26.71;22.61
24234;BME280;12365;43.554;1.388;2022-09-17T15:44:43;99915.78;;;26.71;22.84
24234;BME280;12365;43.554;1.388;2022-09-17T15:52:41;99918.47;;;26.71;22.84
24234;BME280;12365;43.554;1.388;2022-09-17T15:55:37;99922.06;;;26.69;22.88
24234;BME280;12365;43.554;1.388;2022-09-17T15:58:25;99912.25;;;26.69;22.69
24234;BME280;12365;43.554;1.388;2022-09-17T16:08:59;99927.44;;;26.67;22.42
24234;BME280;12365;43.554;1.388;2022-09-17T16:11:27;99921.22;;;26.64;22.24
24234;BME280;12365;43.554;1.388;2022-09-17T16:13:54;99921.28;;;26.62;22.54
24234;BME280;12365;43.554;1.388;2022-09-17T16:16:33;99914.13;;;26.61;22.52
24234;BME280;12365;43.554;1.388;2022-09-17T16:18:58;99916.84;;;26.59;22.34
24234;BME280;12365;43.554;1.388;2022-09-17T16:21:24;99910.56;;;26.62;22.59
24234;BME280;12365;43.554;1.388;2022-09-17T16:23:49;99920.34;;;26.63;22.54
24234;BME280;12365;43.554;1.388;2022-09-17T16:26:22;99918.66;;;26.57;22.54
24234;BME280;12365;43.554;1.388;2022-09-17T16:28:50;99914.34;;;26.46;22.27
24234;BME280;12365;43.554;1.388;2022-09-17T16:31:21;99912.69;;;26.38;22.75
24234;BME280;12365;43.554;1.388;2022-09-17T16:33:47;99910.03;;;26.37;22.24
24234;BME280;12365;43.554;1.388;2022-09-17T16:36:15;99903.84;;;26.33;22.34
24234;BME280;12365;43.554;1.388;2022-09-17T16:38:41;99903.84;;;26.33;22.46
24234;BME280;12365;43.554;1.388;2022-09-17T16:41:06;99905.53;;;26.37;22.27
24234;BME280;12365;43.554;1.388;2022-09-17T16:43:32;99909.97;;;26.40;22.58
24234;BME280;12365;43.554;1.388;2022-09-17T16:46:07;99904.66;;;26.38;22.28
24234;BME280;12365;43.554;1.388;2022-09-17T16:48:33;99906.47;;;26.36;22.16
24234;BME280;12365;43.554;1.388;2022-09-17T16:50:59;99916.34;;;26.31;22.17
24234;BME280;12365;43.554;1.388;2022-09-17T16:53:28;99910.19;;;26.26;21.73
24234;BME280;12365;43.554;1.388;2022-09-17T16:55:53;99904.78;;;26.31;21.99
24234;BME280;12365;43.554;1.388;2022-09-17T16:58:18;99916.31;;;26.33;21.59